Longchamps, Argentina
Current Conditions -  °F | °C
As of 3:00 PM on Thursday 27 Nov 2014 (Local Time) from SAEZ Reporting Station
Clear Clear  
Wind Chill: 82°   Ceiling: Unl
Heat Index: 82°   Visibility: 6mi
Dew Point: 46°   Wind: 12mph
Humidity: 28%   Direction: 30°NNE
Pressure: 29.97"   Gusts: NA
Location:  34.87°S, 58.38°W
Report Text: SAEZ 271800Z 03010KT 350V090 CAVOK 28/08 Q1015
Loading
Personal Weather Stations






























Interactive Weather Map New forecast layout! Learn more

10-Day Weather Forecast

Advertisements
Track Severe Weather on mobile